Darstellungsparameter: Aktuell verwendete Einstellungen:
Skalierung der Graphiken ... ?
xyx+y,   Skalierungsfaktor:      Skalierung: Modus: x, Faktor: 1
Darstellungszeitraum ... ?
Vom - - bis: - -   Zeitraum: 29.10.2020 - 29.10.2020
Min/Max/Avg-Anzeige ... ?
Zeige MMA aktuell
Zeige MMA Monat
Zeige MMA alles
Zeige --A aktuell
Zeige --A Monat
Zeige --A alles
Keine MMA-Anzeige
MMA:
Average (ber die Originaldaten)
MMA-Basis: 29.10.2020 - 29.10.2020
Quicknavigation für Darstellung... ?
Tage:      1T, 2T, 3T, 5T -1T -2T -3T -5T +1T +2T +3T +5T
Wochen: 1W, 2W, 3W -1W -2W -3W +1W +2W +3W
Monate: 1M, 3M, 6M -1M -3M -6M +1M +3M +6M
Jahre:    1J, 3J, 5J, 10J -1J -3J -5J -10J +1J +3J +5J +10J
Nutze für die Darstellung ... ?
Originaldaten oder Mittelwerte auf ...
Stundenbasis Tagesbasis Wochenbasis
Monatsbasis Jahresbasis      Datenbasis: Original-Daten
Darstellen als:
Statistik (Auto) Statistik J:M      Darstellung:
Zur Graphik,    zurück zur Übersicht aller Sensoren.
 
Tabellarische Datenbersicht: ?
 
Sensor: Nr:Datum:Temp:Abs-Feuchte:Windchill:Wind:
Aussen-T/F 1 29-10-2020 00:00:00 12.6 C 9.07 g/m*3 12.6 C 11.3 km/h
2 29-10-2020 00:05:00 12.6 C 9.07 g/m*3 12.6 C 20.9 km/h
3 29-10-2020 00:10:00 12.6 C 9.18 g/m*3 12.6 C 16.1 km/h
4 29-10-2020 00:15:00 12.5 C 9.13 g/m*3 12.5 C 14.5 km/h
5 29-10-2020 00:20:00 12.5 C 9.24 g/m*3 12.5 C 12.9 km/h
6 29-10-2020 00:25:00 12.4 C 9.18 g/m*3 12.4 C 16.1 km/h
7 29-10-2020 00:30:00 12.4 C 9.29 g/m*3 12.4 C 14.5 km/h
8 29-10-2020 00:35:00 12.4 C 9.29 g/m*3 12.4 C 12.9 km/h
9 29-10-2020 00:40:00 12.4 C 9.29 g/m*3 12.4 C 16.1 km/h
10 29-10-2020 00:45:00 12.4 C 9.4 g/m*3 12.4 C 22.5 km/h
11 29-10-2020 00:50:00 12.4 C 9.4 g/m*3 12.4 C 11.3 km/h
12 29-10-2020 00:55:00 12.4 C 9.4 g/m*3 12.4 C 11.3 km/h
13 29-10-2020 01:00:00 12.3 C 9.56 g/m*3 12.3 C 17.7 km/h
14 29-10-2020 01:05:00 11.9 C 9.32 g/m*3 11.9 C 24.1 km/h
15 29-10-2020 01:10:00 11.2 C 8.82 g/m*3 11.2 C 20.9 km/h
16 29-10-2020 01:15:00 10.7 C 8.64 g/m*3 9.04 C 12.9 km/h
17 29-10-2020 01:20:00 10.5 C 8.73 g/m*3 9.57 C 8.1 km/h
18 29-10-2020 01:25:00 10.3 C 8.71 g/m*3 9.72 C 6.4 km/h
19 29-10-2020 01:30:00 10.3 C 8.71 g/m*3 10.3 C 4.8 km/h
20 29-10-2020 01:35:00 10.2 C 8.76 g/m*3 8.92 C 9.7 km/h
21 29-10-2020 01:40:00 10.2 C 8.76 g/m*3 8.22 C 14.5 km/h
22 29-10-2020 01:45:00 10.1 C 8.61 g/m*3 8.1 C 14.5 km/h
23 29-10-2020 01:50:00 10 C 8.55 g/m*3 7.98 C 14.5 km/h
24 29-10-2020 01:55:00 9.9 C 8.5 g/m*3 8.56 C 9.7 km/h
25 29-10-2020 02:00:00 9.9 C 8.5 g/m*3 8.87 C 8.1 km/h
Sensor: Nr:Datum:Temp:Abs-Feuchte:Windchill:Wind:
Aussen-T/F 26 29-10-2020 02:05:00 9.9 C 8.5 g/m*3 8.56 C 9.7 km/h
27 29-10-2020 02:10:00 9.8 C 8.54 g/m*3 8.75 C 8.1 km/h
28 29-10-2020 02:15:00 9.8 C 8.54 g/m*3 8.75 C 8.1 km/h
29 29-10-2020 02:20:00 9.7 C 8.48 g/m*3 9.7 C 4.8 km/h
30 29-10-2020 02:25:00 9.7 C 8.48 g/m*3 9.02 C 6.4 km/h
31 29-10-2020 02:30:00 9.7 C 8.57 g/m*3 8.63 C 8.1 km/h
32 29-10-2020 02:35:00 9.8 C 8.63 g/m*3 9.14 C 6.4 km/h
33 29-10-2020 02:40:00 9.8 C 8.63 g/m*3 9.8 C 4.8 km/h
34 29-10-2020 02:45:00 9.8 C 8.63 g/m*3 9.8 C 3.2 km/h
35 29-10-2020 02:50:00 9.9 C 8.68 g/m*3 9.9 C 4.8 km/h
36 29-10-2020 02:55:00 9.9 C 8.78 g/m*3 8.87 C 8.1 km/h
37 29-10-2020 03:00:00 10 C 8.83 g/m*3 10 C 3.2 km/h
38 29-10-2020 03:05:00 10 C 8.83 g/m*3 10 C 4.8 km/h
39 29-10-2020 03:10:00 10.1 C 8.89 g/m*3 10.1 C 4.8 km/h
40 29-10-2020 03:15:00 10.1 C 8.89 g/m*3 9.1 C 8.1 km/h
41 29-10-2020 03:20:00 10.1 C 8.89 g/m*3 8.54 C 11.3 km/h
42 29-10-2020 03:25:00 10.1 C 8.79 g/m*3 8.54 C 11.3 km/h
43 29-10-2020 03:30:00 10.2 C 8.85 g/m*3 8.66 C 11.3 km/h
44 29-10-2020 03:35:00 10.3 C 8.81 g/m*3 8.55 C 12.9 km/h
45 29-10-2020 03:40:00 10.3 C 8.81 g/m*3 9.34 C 8.1 km/h
46 29-10-2020 03:45:00 10.3 C 8.81 g/m*3 8.78 C 11.3 km/h
47 29-10-2020 03:50:00 10.3 C 8.81 g/m*3 8.55 C 12.9 km/h
48 29-10-2020 03:55:00 10.3 C 8.81 g/m*3 8.78 C 11.3 km/h
49 29-10-2020 04:00:00 10.2 C 8.85 g/m*3 9.22 C 8.1 km/h
50 29-10-2020 04:05:00 10.2 C 8.76 g/m*3 9.22 C 8.1 km/h
Sensor: Nr:Datum:Temp:Abs-Feuchte:Windchill:Wind:
Aussen-T/F 51 29-10-2020 04:10:00 10.2 C 8.85 g/m*3 9.6 C 6.4 km/h
52 29-10-2020 04:15:00 10.2 C 8.85 g/m*3 10.2 C 4.8 km/h
53 29-10-2020 04:20:00 10.1 C 8.79 g/m*3 8.1 C 14.5 km/h
54 29-10-2020 04:25:00 10 C 8.74 g/m*3 8.99 C 8.1 km/h
55 29-10-2020 04:30:00 10 C 8.64 g/m*3 8.19 C 12.9 km/h
56 29-10-2020 04:35:00 10 C 8.64 g/m*3 8.68 C 9.7 km/h
57 29-10-2020 04:40:00 10 C 8.64 g/m*3 9.37 C 6.4 km/h
58 29-10-2020 04:45:00 10 C 8.64 g/m*3 9.37 C 6.4 km/h
59 29-10-2020 04:50:00 9.9 C 8.59 g/m*3 8.06 C 12.9 km/h
60 29-10-2020 04:55:00 9.9 C 8.59 g/m*3 8.87 C 8.1 km/h
61 29-10-2020 05:00:00 9.9 C 8.59 g/m*3 8.56 C 9.7 km/h
62 29-10-2020 05:05:00 9.9 C 8.59 g/m*3 7.85 C 14.5 km/h
63 29-10-2020 05:10:00 9.9 C 8.59 g/m*3 8.87 C 8.1 km/h
64 29-10-2020 05:15:00 9.8 C 8.54 g/m*3 8.45 C 9.7 km/h
65 29-10-2020 05:20:00 9.8 C 8.54 g/m*3 9.14 C 6.4 km/h
66 29-10-2020 05:25:00 9.8 C 8.54 g/m*3 7.73 C 14.5 km/h
67 29-10-2020 05:30:00 9.9 C 8.59 g/m*3 9.9 C 4.8 km/h
68 29-10-2020 05:35:00 9.9 C 8.59 g/m*3 8.87 C 8.1 km/h
69 29-10-2020 05:40:00 9.9 C 8.59 g/m*3 9.25 C 6.4 km/h
70 29-10-2020 05:45:00 9.8 C 8.54 g/m*3 8.18 C 11.3 km/h
71 29-10-2020 05:50:00 9.9 C 8.5 g/m*3 7.85 C 14.5 km/h
72 29-10-2020 05:55:00 10.1 C 8.61 g/m*3 8.54 C 11.3 km/h
73 29-10-2020 06:00:00 10.1 C 8.61 g/m*3 8.54 C 11.3 km/h
74 29-10-2020 06:05:00 10.1 C 8.51 g/m*3 8.54 C 11.3 km/h
75 29-10-2020 06:10:00 10.1 C 8.51 g/m*3 8.8 C 9.7 km/h
Sensor: Nr:Datum:Temp:Abs-Feuchte:Windchill:Wind:
Aussen-T/F 76 29-10-2020 06:15:00 10.1 C 8.51 g/m*3 8.54 C 11.3 km/h
77 29-10-2020 06:20:00 10.1 C 8.51 g/m*3 9.48 C 6.4 km/h
78 29-10-2020 06:25:00 10 C 8.46 g/m*3 8.42 C 11.3 km/h
79 29-10-2020 06:30:00 9.9 C 8.4 g/m*3 8.56 C 9.7 km/h
80 29-10-2020 06:35:00 9.9 C 8.4 g/m*3 8.3 C 11.3 km/h
81 29-10-2020 06:40:00 9.8 C 8.35 g/m*3 8.45 C 9.7 km/h
82 29-10-2020 06:45:00 9.8 C 8.26 g/m*3 7.94 C 12.9 km/h
83 29-10-2020 06:50:00 9.8 C 8.16 g/m*3 9.14 C 6.4 km/h
84 29-10-2020 06:55:00 9.8 C 8.16 g/m*3 9.14 C 6.4 km/h
85 29-10-2020 07:00:00 9.7 C 8.11 g/m*3 8.33 C 9.7 km/h
86 29-10-2020 07:05:00 9.7 C 8.11 g/m*3 8.33 C 9.7 km/h
87 29-10-2020 07:10:00 9.6 C 8.06 g/m*3 9.6 C 4.8 km/h
88 29-10-2020 07:15:00 9.5 C 7.92 g/m*3 8.79 C 6.4 km/h
89 29-10-2020 07:20:00 9.4 C 7.96 g/m*3 7.46 C 12.9 km/h
90 29-10-2020 07:25:00 9.3 C 7.91 g/m*3 9.3 C 4.8 km/h
91 29-10-2020 07:30:00 9.2 C 7.86 g/m*3 9.2 C 3.2 km/h
92 29-10-2020 07:35:00 9.1 C 7.9 g/m*3 9.1 C 4.8 km/h
93 29-10-2020 07:40:00 9 C 7.85 g/m*3 9 C 3.2 km/h
94 29-10-2020 07:45:00 8.8 C 7.75 g/m*3 8.8 C 4.8 km/h
95 29-10-2020 07:50:00 8.8 C 7.75 g/m*3 7.58 C 8.1 km/h
96 29-10-2020 07:55:00 8.8 C 7.83 g/m*3 8.8 C 4.8 km/h
97 29-10-2020 08:00:00 8.7 C 7.78 g/m*3 8.7 C 4.8 km/h
98 29-10-2020 08:05:00 8.7 C 7.78 g/m*3 7.87 C 6.4 km/h
99 29-10-2020 08:10:00 8.7 C 7.78 g/m*3 7.87 C 6.4 km/h
100 29-10-2020 08:15:00 8.8 C 7.83 g/m*3 8.8 C 4.8 km/h
Sensor: Nr:Datum:Temp:Abs-Feuchte:Windchill:Wind:
Aussen-T/F 101 29-10-2020 08:20:00 8.8 C 7.83 g/m*3 7.58 C 8.1 km/h
102 29-10-2020 08:25:00 8.9 C 7.88 g/m*3 6.85 C 12.9 km/h
103 29-10-2020 08:30:00 9.2 C 7.95 g/m*3 7.73 C 9.7 km/h
104 29-10-2020 08:35:00 9.3 C 8 g/m*3 8.56 C 6.4 km/h
105 29-10-2020 08:40:00 9.4 C 7.96 g/m*3 7.7 C 11.3 km/h
106 29-10-2020 08:45:00 9.4 C 7.96 g/m*3 8.68 C 6.4 km/h
107 29-10-2020 08:50:00 9.4 C 7.96 g/m*3 9.4 C 3.2 km/h
108 29-10-2020 08:55:00 9.4 C 7.96 g/m*3 8.28 C 8.1 km/h
109 29-10-2020 09:00:00 9.4 C 7.96 g/m*3 9.4 C 4.8 km/h
110 29-10-2020 09:05:00 9.3 C 7.91 g/m*3 8.16 C 8.1 km/h
111 29-10-2020 09:10:00 9.3 C 7.91 g/m*3 8.16 C 8.1 km/h
112 29-10-2020 09:15:00 9.4 C 7.87 g/m*3 7.97 C 9.7 km/h
113 29-10-2020 09:20:00 9.6 C 8.06 g/m*3 8.91 C 6.4 km/h
114 29-10-2020 09:25:00 9.7 C 8.11 g/m*3 9.02 C 6.4 km/h
115 29-10-2020 09:30:00 9.8 C 8.16 g/m*3 9.14 C 6.4 km/h
116 29-10-2020 09:35:00 9.8 C 8.16 g/m*3 8.75 C 8.1 km/h
117 29-10-2020 09:40:00 10 C 8.17 g/m*3 10 C 4.8 km/h
118 29-10-2020 09:45:00 10.1 C 8.32 g/m*3 10.1 C 3.2 km/h
119 29-10-2020 09:50:00 10.3 C 8.33 g/m*3 10.3 C 3.2 km/h
120 29-10-2020 09:55:00 10.4 C 8.38 g/m*3 10.4 C 4.8 km/h
121 29-10-2020 10:00:00 10.6 C 8.49 g/m*3 10.6 C 1.6 km/h
122 29-10-2020 10:05:00 10.7 C 8.55 g/m*3 10.7 C 4.8 km/h
123 29-10-2020 10:10:00 10.8 C 8.6 g/m*3 9.93 C 8.1 km/h
124 29-10-2020 10:15:00 10.9 C 8.45 g/m*3 10.41 C 6.4 km/h
125 29-10-2020 10:20:00 11.1 C 8.66 g/m*3 11.1 C 8.1 km/h
Sensor: Nr:Datum:Temp:Abs-Feuchte:Windchill:Wind:
Aussen-T/F 126 29-10-2020 10:25:00 11.2 C 8.62 g/m*3 11.2 C 3.2 km/h
127 29-10-2020 10:30:00 11.2 C 8.62 g/m*3 11.2 C 9.7 km/h
128 29-10-2020 10:35:00 11.3 C 8.67 g/m*3 11.3 C 3.2 km/h
129 29-10-2020 10:40:00 11.4 C 8.72 g/m*3 11.4 C 8.1 km/h
130 29-10-2020 10:45:00 11.5 C 8.68 g/m*3 11.5 C 8.1 km/h
131 29-10-2020 10:50:00 11.6 C 8.63 g/m*3 11.6 C 6.4 km/h
132 29-10-2020 10:55:00 11.7 C 8.79 g/m*3 11.7 C 6.4 km/h
133 29-10-2020 11:00:00 11.8 C 8.74 g/m*3 11.8 C 3.2 km/h
134 29-10-2020 11:05:00 11.8 C 8.63 g/m*3 11.8 C 8.1 km/h
135 29-10-2020 11:10:00 11.8 C 8.63 g/m*3 11.8 C 6.4 km/h
136 29-10-2020 11:15:00 11.8 C 8.74 g/m*3 11.8 C 6.4 km/h
137 29-10-2020 11:20:00 11.8 C 8.74 g/m*3 11.8 C 4.8 km/h
138 29-10-2020 11:25:00 11.7 C 8.68 g/m*3 11.7 C 6.4 km/h
139 29-10-2020 11:30:00 11.7 C 8.79 g/m*3 11.7 C 6.4 km/h
140 29-10-2020 11:35:00 11.6 C 8.83 g/m*3 11.6 C 11.3 km/h
141 29-10-2020 11:40:00 11.4 C 8.83 g/m*3 11.4 C 9.7 km/h
142 29-10-2020 11:45:00 11.3 C 8.87 g/m*3 11.3 C 8.1 km/h
143 29-10-2020 11:50:00 11.2 C 8.92 g/m*3 11.2 C 6.4 km/h
144 29-10-2020 11:55:00 11.1 C 8.86 g/m*3 11.1 C 6.4 km/h
145 29-10-2020 12:00:00 11 C 8.91 g/m*3 10.52 C 6.4 km/h
146 29-10-2020 12:05:00 10.9 C 8.85 g/m*3 10.41 C 6.4 km/h
147 29-10-2020 12:10:00 10.8 C 8.8 g/m*3 9.93 C 8.1 km/h
148 29-10-2020 12:15:00 10.7 C 8.84 g/m*3 9.52 C 9.7 km/h
149 29-10-2020 12:20:00 10.7 C 8.84 g/m*3 10.7 C 4.8 km/h
150 29-10-2020 12:25:00 10.6 C 8.78 g/m*3 10.06 C 6.4 km/h
Sensor: Nr:Datum:Temp:Abs-Feuchte:Windchill:Wind:
Aussen-T/F 151 29-10-2020 12:30:00 10.6 C 8.88 g/m*3 10.6 C 4.8 km/h
152 29-10-2020 12:35:00 10.6 C 8.88 g/m*3 10.6 C 3.2 km/h
153 29-10-2020 12:40:00 10.6 C 8.88 g/m*3 10.06 C 6.4 km/h
154 29-10-2020 12:45:00 10.6 C 8.88 g/m*3 10.06 C 6.4 km/h
155 29-10-2020 12:50:00 10.6 C 8.88 g/m*3 10.06 C 6.4 km/h
156 29-10-2020 12:55:00 10.7 C 9.04 g/m*3 10.7 C 3.2 km/h
157 29-10-2020 13:00:00 10.6 C 8.98 g/m*3 10.6 C 3.2 km/h
158 29-10-2020 13:05:00 10.6 C 8.98 g/m*3 10.6 C 1.6 km/h
159 29-10-2020 13:10:00 10.7 C 9.13 g/m*3 10.7 C 0 km/h
160 29-10-2020 13:15:00 10.7 C 9.13 g/m*3 10.18 C 6.4 km/h
161 29-10-2020 13:20:00 10.7 C 9.13 g/m*3 9.04 C 12.9 km/h
162 29-10-2020 13:25:00 10.8 C 9.19 g/m*3 10.8 C 1.6 km/h
163 29-10-2020 13:30:00 10.9 C 9.35 g/m*3 10.9 C 4.8 km/h
164 29-10-2020 13:35:00 11.1 C 9.47 g/m*3 11.1 C 1.6 km/h
165 29-10-2020 13:40:00 11.2 C 9.53 g/m*3 11.2 C 0 km/h
166 29-10-2020 13:45:00 11.3 C 9.59 g/m*3 11.3 C 4.8 km/h
167 29-10-2020 13:50:00 11.3 C 9.59 g/m*3 11.3 C 3.2 km/h
168 29-10-2020 13:55:00 11.4 C 9.65 g/m*3 11.4 C 1.6 km/h
169 29-10-2020 14:00:00 11.6 C 9.77 g/m*3 11.6 C 6.4 km/h
170 29-10-2020 14:05:00 11.7 C 9.83 g/m*3 11.7 C 4.8 km/h
171 29-10-2020 14:10:00 11.7 C 9.83 g/m*3 11.7 C 4.8 km/h
172 29-10-2020 14:15:00 11.7 C 9.83 g/m*3 11.7 C 4.8 km/h
173 29-10-2020 14:20:00 11.7 C 9.83 g/m*3 11.7 C 6.4 km/h
174 29-10-2020 14:25:00 11.7 C 9.83 g/m*3 11.7 C 4.8 km/h
175 29-10-2020 14:30:00 11.7 C 9.83 g/m*3 11.7 C 6.4 km/h
Sensor: Nr:Datum:Temp:Abs-Feuchte:Windchill:Wind:
Aussen-T/F 176 29-10-2020 14:35:00 11.6 C 9.67 g/m*3 11.6 C 8.1 km/h
177 29-10-2020 14:40:00 11.6 C 9.67 g/m*3 11.6 C 4.8 km/h
178 29-10-2020 14:45:00 11.5 C 9.71 g/m*3 11.5 C 8.1 km/h
179 29-10-2020 14:50:00 11.5 C 9.71 g/m*3 11.5 C 6.4 km/h
180 29-10-2020 14:55:00 11.4 C 9.65 g/m*3 11.4 C 1.6 km/h
181 29-10-2020 15:00:00 11.4 C 9.65 g/m*3 11.4 C 4.8 km/h
182 29-10-2020 15:05:00 11.4 C 9.65 g/m*3 11.4 C 4.8 km/h
183 29-10-2020 15:10:00 11.4 C 9.65 g/m*3 11.4 C 6.4 km/h
184 29-10-2020 15:15:00 11.4 C 9.65 g/m*3 11.4 C 9.7 km/h
185 29-10-2020 15:20:00 11.3 C 9.59 g/m*3 11.3 C 4.8 km/h
186 29-10-2020 15:25:00 11.3 C 9.59 g/m*3 11.3 C 4.8 km/h
187 29-10-2020 15:30:00 11.3 C 9.59 g/m*3 11.3 C 6.4 km/h
188 29-10-2020 15:35:00 11.3 C 9.69 g/m*3 11.3 C 4.8 km/h
189 29-10-2020 15:40:00 11.3 C 9.69 g/m*3 11.3 C 1.6 km/h
190 29-10-2020 15:45:00 11.3 C 9.59 g/m*3 11.3 C 1.6 km/h
191 29-10-2020 15:50:00 11.3 C 9.69 g/m*3 11.3 C 4.8 km/h
192 29-10-2020 15:55:00 11.3 C 9.69 g/m*3 11.3 C 4.8 km/h
193 29-10-2020 16:00:00 11.3 C 9.59 g/m*3 11.3 C 3.2 km/h
194 29-10-2020 16:05:00 11.3 C 9.59 g/m*3 11.3 C 4.8 km/h
195 29-10-2020 16:10:00 11.3 C 9.69 g/m*3 11.3 C 3.2 km/h
196 29-10-2020 16:15:00 11.3 C 9.69 g/m*3 11.3 C 3.2 km/h
197 29-10-2020 16:20:00 11.3 C 9.69 g/m*3 11.3 C 6.4 km/h
198 29-10-2020 16:25:00 11.2 C 9.53 g/m*3 11.2 C 4.8 km/h
199 29-10-2020 16:30:00 11.2 C 9.63 g/m*3 11.2 C 6.4 km/h
200 29-10-2020 16:35:00 11.1 C 9.57 g/m*3 11.1 C 9.7 km/h
Sensor: Nr:Datum:Temp:Abs-Feuchte:Windchill:Wind:
Aussen-T/F 201 29-10-2020 16:40:00 11 C 9.51 g/m*3 9.88 C 9.7 km/h
202 29-10-2020 16:45:00 11 C 9.51 g/m*3 10.16 C 8.1 km/h
203 29-10-2020 16:50:00 10.9 C 9.45 g/m*3 10.04 C 8.1 km/h
204 29-10-2020 16:55:00 10.9 C 9.45 g/m*3 9.51 C 11.3 km/h
205 29-10-2020 17:00:00 10.8 C 9.39 g/m*3 10.29 C 6.4 km/h
206 29-10-2020 17:05:00 10.8 C 9.39 g/m*3 10.29 C 6.4 km/h
207 29-10-2020 17:10:00 10.8 C 9.39 g/m*3 9.93 C 8.1 km/h
208 29-10-2020 17:15:00 10.8 C 9.39 g/m*3 10.29 C 6.4 km/h
209 29-10-2020 17:20:00 10.8 C 9.39 g/m*3 10.29 C 6.4 km/h
210 29-10-2020 17:25:00 10.8 C 9.39 g/m*3 10.29 C 6.4 km/h
211 29-10-2020 17:30:00 10.8 C 9.39 g/m*3 9.93 C 8.1 km/h
212 29-10-2020 17:35:00 10.8 C 9.39 g/m*3 10.8 C 4.8 km/h
213 29-10-2020 17:40:00 10.7 C 9.33 g/m*3 10.7 C 1.6 km/h
214 29-10-2020 17:45:00 10.7 C 9.33 g/m*3 10.7 C 0 km/h
215 29-10-2020 17:50:00 10.7 C 9.33 g/m*3 10.7 C 0 km/h
216 29-10-2020 17:55:00 10.7 C 9.33 g/m*3 10.7 C 0 km/h
217 29-10-2020 18:00:00 10.7 C 9.33 g/m*3 10.7 C 0 km/h
218 29-10-2020 18:05:00 10.7 C 9.33 g/m*3 10.7 C 1.6 km/h
219 29-10-2020 18:10:00 10.6 C 9.27 g/m*3 10.6 C 0 km/h
220 29-10-2020 18:15:00 10.6 C 9.27 g/m*3 10.6 C 1.6 km/h
221 29-10-2020 18:20:00 10.6 C 9.27 g/m*3 10.6 C 0 km/h
222 29-10-2020 18:25:00 10.6 C 9.27 g/m*3 10.6 C 3.2 km/h
223 29-10-2020 18:30:00 10.6 C 9.27 g/m*3 10.6 C 0 km/h
224 29-10-2020 18:35:00 10.6 C 9.27 g/m*3 10.6 C 0 km/h
225 29-10-2020 18:40:00 10.6 C 9.27 g/m*3 10.6 C 1.6 km/h
Sensor: Nr:Datum:Temp:Abs-Feuchte:Windchill:Wind:
Aussen-T/F 226 29-10-2020 18:45:00 10.5 C 9.21 g/m*3 10.5 C 0 km/h
227 29-10-2020 18:50:00 10.5 C 9.21 g/m*3 10.5 C 0 km/h
228 29-10-2020 18:55:00 10.5 C 9.21 g/m*3 10.5 C 0 km/h
229 29-10-2020 19:00:00 10.5 C 9.21 g/m*3 10.5 C 0 km/h
230 29-10-2020 19:05:00 10.4 C 9.25 g/m*3 10.4 C 0 km/h
231 29-10-2020 19:10:00 10.4 C 9.25 g/m*3 10.4 C 1.6 km/h
232 29-10-2020 19:15:00 10.4 C 9.25 g/m*3 10.4 C 0 km/h
233 29-10-2020 19:20:00 10.5 C 9.31 g/m*3 10.5 C 0 km/h
234 29-10-2020 19:25:00 10.5 C 9.31 g/m*3 10.5 C 0 km/h
235 29-10-2020 19:30:00 10.5 C 9.31 g/m*3 10.5 C 0 km/h
236 29-10-2020 19:35:00 10.5 C 9.31 g/m*3 10.5 C 0 km/h
237 29-10-2020 19:40:00 10.5 C 9.31 g/m*3 10.5 C 0 km/h
238 29-10-2020 19:45:00 10.5 C 9.31 g/m*3 10.5 C 0 km/h
239 29-10-2020 19:50:00 10.5 C 9.31 g/m*3 10.5 C 0 km/h
240 29-10-2020 19:55:00 10.5 C 9.31 g/m*3 10.5 C 0 km/h
241 29-10-2020 20:00:00 10.5 C 9.31 g/m*3 10.5 C 0 km/h
242 29-10-2020 20:05:00 10.5 C 9.31 g/m*3 10.5 C 0 km/h
243 29-10-2020 20:10:00 10.6 C 9.37 g/m*3 10.6 C 0 km/h
244 29-10-2020 20:15:00 10.6 C 9.37 g/m*3 10.6 C 0 km/h
245 29-10-2020 20:20:00 10.6 C 9.37 g/m*3 10.06 C 6.4 km/h
246 29-10-2020 20:25:00 10.7 C 9.43 g/m*3 10.7 C 3.2 km/h
247 29-10-2020 20:30:00 10.7 C 9.43 g/m*3 9.26 C 11.3 km/h
248 29-10-2020 20:35:00 10.7 C 9.43 g/m*3 9.52 C 9.7 km/h
249 29-10-2020 20:40:00 10.7 C 9.43 g/m*3 9.81 C 8.1 km/h
250 29-10-2020 20:45:00 10.7 C 9.43 g/m*3 10.18 C 6.4 km/h
Sensor: Nr:Datum:Temp:Abs-Feuchte:Windchill:Wind:
Aussen-T/F 251 29-10-2020 20:50:00 10.7 C 9.43 g/m*3 9.81 C 8.1 km/h
252 29-10-2020 20:55:00 10.7 C 9.43 g/m*3 10.7 C 3.2 km/h
253 29-10-2020 21:00:00 10.7 C 9.43 g/m*3 10.7 C 3.2 km/h
254 29-10-2020 21:05:00 10.8 C 9.49 g/m*3 9.93 C 8.1 km/h
255 29-10-2020 21:10:00 10.8 C 9.49 g/m*3 9.93 C 8.1 km/h
256 29-10-2020 21:15:00 10.8 C 9.49 g/m*3 9.64 C 9.7 km/h
257 29-10-2020 21:20:00 10.8 C 9.49 g/m*3 10.29 C 6.4 km/h
258 29-10-2020 21:25:00 10.9 C 9.55 g/m*3 10.9 C 4.8 km/h
259 29-10-2020 21:30:00 10.9 C 9.55 g/m*3 10.9 C 4.8 km/h
260 29-10-2020 21:35:00 10.9 C 9.55 g/m*3 10.9 C 4.8 km/h
261 29-10-2020 21:40:00 10.9 C 9.55 g/m*3 9.51 C 11.3 km/h
262 29-10-2020 21:45:00 11 C 9.61 g/m*3 10.16 C 8.1 km/h
263 29-10-2020 21:50:00 11 C 9.61 g/m*3 10.52 C 6.4 km/h
264 29-10-2020 21:55:00 11.1 C 9.67 g/m*3 11.1 C 4.8 km/h
265 29-10-2020 22:00:00 11.1 C 9.67 g/m*3 11.1 C 6.4 km/h
266 29-10-2020 22:05:00 11.1 C 9.67 g/m*3 11.1 C 9.7 km/h
267 29-10-2020 22:10:00 11.1 C 9.67 g/m*3 11.1 C 6.4 km/h
268 29-10-2020 22:15:00 11.1 C 9.67 g/m*3 11.1 C 3.2 km/h
269 29-10-2020 22:20:00 11.2 C 9.73 g/m*3 11.2 C 8.1 km/h
270 29-10-2020 22:25:00 11.2 C 9.73 g/m*3 11.2 C 6.4 km/h
271 29-10-2020 22:30:00 11.3 C 9.79 g/m*3 11.3 C 8.1 km/h
272 29-10-2020 22:35:00 11.3 C 9.79 g/m*3 11.3 C 6.4 km/h
273 29-10-2020 22:40:00 11.3 C 9.79 g/m*3 11.3 C 4.8 km/h
274 29-10-2020 22:45:00 11.3 C 9.79 g/m*3 11.3 C 4.8 km/h
275 29-10-2020 22:50:00 11.3 C 9.79 g/m*3 11.3 C 11.3 km/h
Sensor: Nr:Datum:Temp:Abs-Feuchte:Windchill:Wind:
Aussen-T/F 276 29-10-2020 22:55:00 11.4 C 9.85 g/m*3 11.4 C 9.7 km/h
277 29-10-2020 23:00:00 11.4 C 9.85 g/m*3 11.4 C 8.1 km/h
278 29-10-2020 23:05:00 11.4 C 9.85 g/m*3 11.4 C 11.3 km/h
279 29-10-2020 23:10:00 11.5 C 9.92 g/m*3 11.5 C 11.3 km/h
280 29-10-2020 23:15:00 11.5 C 9.92 g/m*3 11.5 C 11.3 km/h
281 29-10-2020 23:20:00 11.5 C 9.92 g/m*3 11.5 C 1.6 km/h
282 29-10-2020 23:25:00 11.6 C 9.98 g/m*3 11.6 C 4.8 km/h
283 29-10-2020 23:30:00 11.6 C 9.98 g/m*3 11.6 C 0 km/h
284 29-10-2020 23:35:00 11.6 C 9.98 g/m*3 11.6 C 6.4 km/h
285 29-10-2020 23:40:00 11.6 C 9.98 g/m*3 11.6 C 6.4 km/h
286 29-10-2020 23:45:00 11.7 C 10.04 g/m*3 11.7 C 8.1 km/h
287 29-10-2020 23:50:00 11.7 C 10.04 g/m*3 11.7 C 1.6 km/h
288 29-10-2020 23:55:00 11.7 C 10.04 g/m*3 11.7 C 0 km/h

Legende:
   Min
   Max


Maximal/Minimal-Werte vom 29.10.2020 - 29.10.2020

Sensor Min Max Avg
Temp
(Aussen-T/F)
8.7 °C
29-10-2020  08:00:00
12.6 °C
29-10-2020  00:00:00
10.65 °C
Abs-Feuchte
(Aussen-T/F)
7.75 g/m*3
29-10-2020  07:45:00
10.04 g/m*3
29-10-2020  23:45:00
8.98 g/m*3
Windchill
(Aussen-T/F)
6.85 C
29-10-2020  08:25:00
12.6 C
29-10-2020  00:00:00
10.17 C

Die Daten stammen von einer Davis Vantage Pro 2 Wetter-Station und werden unter Linux mit der Software wview2wettercgi und aufbereitet. Alle Angaben erfolgen ohne Gewähr für ihre Vollständigkeit oder Richtigkeit.
Kontakt: Rainer Krienke krienke@uni-koblenz.de . Meine Webseiten an der Uni Koblenz oder privat.
Version: $Revision: 0.78 $